createdAt,value
2019-03-18T00:00:37.892Z,94.80
2019-03-18T00:03:10.220Z,94.80
2019-03-18T00:05:42.150Z,94.60
2019-03-18T00:08:14.086Z,94.70
2019-03-18T00:10:46.076Z,94.70
2019-03-18T00:13:18.086Z,94.50
2019-03-18T00:15:50.008Z,94.40
2019-03-18T00:18:22.378Z,94.40
2019-03-18T00:20:54.302Z,94.30
2019-03-18T00:23:26.656Z,94.30
2019-03-18T00:25:58.622Z,94.40
2019-03-18T00:28:30.552Z,94.40
2019-03-18T00:31:02.932Z,94.50
2019-03-18T00:33:34.894Z,94.30
2019-03-18T00:36:06.816Z,94.40
2019-03-18T00:38:38.756Z,94.30
2019-03-18T00:41:11.000Z,94.30
2019-03-18T00:43:43.250Z,94.30
2019-03-18T00:46:15.604Z,94.30
2019-03-18T00:48:47.953Z,94.30
2019-03-18T00:51:20.614Z,94.30
2019-03-18T00:53:53.291Z,94.40
2019-03-18T00:56:25.210Z,94.40
2019-03-18T00:58:57.148Z,94.40
2019-03-18T01:01:29.084Z,95.00
2019-03-18T01:04:01.020Z,95.90
2019-03-18T01:06:32.939Z,96.20
2019-03-18T01:09:06.136Z,96.60
2019-03-18T01:11:38.104Z,96.80
2019-03-18T01:14:10.035Z,97.20
2019-03-18T01:16:41.956Z,97.40
2019-03-18T01:19:13.893Z,97.50
2019-03-18T01:21:46.558Z,97.90
2019-03-18T01:24:18.808Z,97.90
2019-03-18T01:26:51.055Z,97.90
2019-03-18T01:29:24.702Z,97.90
2019-03-18T01:31:56.627Z,97.80
2019-03-18T01:34:28.587Z,97.80
2019-03-18T01:37:00.488Z,97.90
2019-03-18T01:39:32.420Z,97.90
2019-03-18T01:42:04.345Z,98.00
2019-03-18T01:44:36.269Z,97.90
2019-03-18T01:47:08.195Z,97.60
2019-03-18T01:49:40.549Z,97.50
2019-03-18T01:52:12.473Z,97.40
2019-03-18T01:54:44.732Z,97.20
2019-03-18T01:57:17.020Z,97.10
2019-03-18T01:59:49.912Z,97.40
2019-03-18T02:02:21.844Z,97.00
2019-03-18T02:04:53.781Z,96.70
2019-03-18T02:07:25.536Z,96.90
2019-03-18T02:09:57.476Z,96.60
2019-03-18T02:12:30.939Z,96.70
2019-03-18T02:15:02.882Z,96.60
2019-03-18T02:17:34.797Z,96.50
2019-03-18T02:20:08.275Z,96.60
2019-03-18T02:22:40.300Z,96.50
2019-03-18T02:25:13.333Z,96.40
2019-03-18T02:27:46.339Z,96.40
2019-03-18T02:30:18.527Z,96.20
2019-03-18T02:32:51.021Z,96.00
2019-03-18T02:35:22.953Z,96.00
2019-03-18T02:37:54.886Z,96.00
2019-03-18T02:40:26.808Z,96.00
2019-03-18T02:42:58.736Z,96.10
2019-03-18T02:45:30.989Z,96.00
2019-03-18T02:48:03.247Z,95.90
2019-03-18T02:50:35.186Z,95.80
2019-03-18T02:53:07.113Z,95.80
2019-03-18T02:55:39.364Z,95.80
2019-03-18T02:58:11.279Z,96.00
2019-03-18T03:00:43.543Z,96.00
2019-03-18T03:03:15.880Z,96.00
2019-03-18T03:05:47.827Z,95.80
2019-03-18T03:08:20.645Z,95.90
2019-03-18T03:10:53.211Z,95.90
2019-03-18T03:13:25.181Z,95.80
2019-03-18T03:15:57.427Z,95.50
2019-03-18T03:18:29.985Z,95.70
2019-03-18T03:21:02.337Z,95.60
2019-03-18T03:23:34.268Z,95.50
2019-03-18T03:26:06.191Z,95.50
2019-03-18T03:28:38.127Z,95.60
2019-03-18T03:31:10.062Z,95.50
2019-03-18T03:33:42.019Z,95.50
2019-03-18T03:36:14.268Z,95.40
2019-03-18T03:38:46.932Z,95.30
2019-03-18T03:41:18.868Z,95.40
2019-03-18T03:43:51.116Z,95.30
2019-03-18T03:46:23.366Z,95.40
2019-03-18T03:48:55.294Z,95.40
2019-03-18T03:51:27.270Z,95.40
2019-03-18T03:53:59.210Z,95.40
2019-03-18T03:56:31.148Z,95.70
2019-03-18T03:59:03.487Z,95.70
2019-03-18T04:01:35.852Z,95.60
2019-03-18T04:04:08.622Z,95.70
2019-03-18T04:06:40.650Z,95.60
2019-03-18T04:09:14.093Z,95.90
2019-03-18T04:11:46.058Z,95.60
2019-03-18T04:14:17.995Z,95.70
2019-03-18T04:17:01.217Z,95.50
2019-03-18T04:19:23.551Z,95.80
2019-03-18T04:21:55.486Z,95.60
2019-03-18T04:24:27.418Z,95.70
2019-03-18T04:26:59.353Z,96.00
2019-03-18T04:29:31.276Z,96.00
2019-03-18T04:32:04.055Z,96.20
2019-03-18T04:34:35.977Z,96.20
2019-03-18T04:37:08.403Z,96.20
2019-03-18T04:39:40.330Z,96.10
2019-03-18T04:42:12.274Z,96.10
2019-03-18T04:44:44.622Z,96.00
2019-03-18T04:47:16.552Z,96.20
2019-03-18T04:49:49.218Z,96.20
2019-03-18T04:52:21.571Z,96.40
2019-03-18T04:54:53.519Z,96.30
2019-03-18T04:57:25.443Z,96.20
2019-03-18T04:59:57.796Z,96.40
2019-03-18T05:02:30.153Z,96.40
2019-03-18T05:05:02.923Z,96.30
2019-03-18T05:07:35.284Z,96.50
2019-03-18T05:10:07.971Z,96.40
2019-03-18T05:12:40.023Z,96.50
2019-03-18T05:15:12.276Z,96.70
2019-03-18T05:17:44.647Z,96.70
2019-03-18T05:20:16.693Z,96.90
2019-03-18T05:22:48.758Z,96.80
2019-03-18T05:25:20.733Z,96.90
2019-03-18T05:27:53.079Z,96.90
2019-03-18T05:30:25.015Z,97.00
2019-03-18T05:32:57.246Z,96.70
2019-03-18T05:35:29.598Z,96.80
2019-03-18T05:38:01.852Z,96.60
2019-03-18T05:40:34.199Z,96.50
2019-03-18T05:43:06.123Z,96.30
2019-03-18T05:45:38.194Z,96.40
2019-03-18T05:48:10.897Z,96.20
2019-03-18T05:50:43.281Z,96.40
2019-03-18T05:53:15.216Z,96.40
2019-03-18T05:55:47.191Z,96.60
2019-03-18T05:58:19.146Z,96.70
2019-03-18T06:00:51.078Z,96.50
2019-03-18T06:03:24.024Z,96.40
2019-03-18T06:05:55.955Z,96.40
2019-03-18T06:08:28.200Z,96.40
2019-03-18T06:11:00.974Z,96.10
2019-03-18T06:13:32.907Z,96.20
2019-03-18T06:16:05.258Z,96.30
2019-03-18T06:18:37.191Z,96.20
2019-03-18T06:21:09.118Z,96.40
2019-03-18T06:23:41.108Z,96.40
2019-03-18T06:26:13.351Z,96.60
2019-03-18T06:28:45.289Z,96.60
2019-03-18T06:31:17.221Z,96.70
2019-03-18T06:33:49.894Z,96.80
2019-03-18T06:36:21.902Z,96.50
2019-03-18T06:38:53.827Z,96.60
2019-03-18T06:41:26.069Z,96.70
2019-03-18T06:43:58.316Z,96.60
2019-03-18T06:46:30.682Z,96.50
2019-03-18T06:49:04.189Z,96.40
2019-03-18T06:51:36.440Z,95.80
2019-03-18T06:54:08.369Z,95.50
2019-03-18T06:56:40.293Z,95.70
2019-03-18T06:59:12.350Z,95.50
2019-03-18T07:01:44.452Z,95.20
2019-03-18T07:04:16.797Z,95.10
2019-03-18T07:06:48.847Z,94.30
2019-03-18T07:09:20.822Z,94.00
2019-03-18T07:11:53.066Z,93.60
2019-03-18T07:14:25.842Z,93.40
2019-03-18T07:16:57.896Z,93.30
2019-03-18T07:19:30.840Z,93.40
2019-03-18T07:22:03.303Z,93.10
2019-03-18T07:24:35.829Z,93.20
2019-03-18T07:27:08.209Z,93.30
2019-03-18T07:29:40.607Z,93.40
2019-03-18T07:32:12.951Z,93.50
2019-03-18T07:34:45.014Z,93.60
2019-03-18T07:37:16.974Z,93.80
2019-03-18T07:39:49.430Z,93.90
2019-03-18T07:42:21.740Z,94.10
2019-03-18T07:44:54.221Z,94.40
2019-03-18T07:47:27.262Z,94.40
2019-03-18T07:50:00.371Z,94.30
2019-03-18T07:52:32.296Z,94.30
2019-03-18T07:55:04.810Z,94.30
2019-03-18T07:57:36.741Z,94.50
2019-03-18T08:00:10.697Z,94.60
2019-03-18T08:02:43.053Z,94.70
2019-03-18T08:05:15.424Z,94.70
2019-03-18T08:07:47.349Z,94.00
2019-03-18T08:10:19.288Z,94.30
2019-03-18T08:12:51.941Z,93.80
2019-03-18T08:15:24.195Z,94.00
2019-03-18T08:17:56.129Z,93.80
2019-03-18T08:20:28.380Z,93.80
2019-03-18T08:23:00.306Z,93.90
2019-03-18T08:25:32.772Z,93.80
2019-03-18T08:28:04.819Z,93.50
2019-03-18T08:30:37.694Z,93.60
2019-03-18T08:33:09.617Z,93.80
2019-03-18T08:35:41.557Z,93.00
2019-03-18T08:38:13.495Z,93.20
2019-03-18T08:40:45.425Z,93.30
2019-03-18T08:43:18.042Z,92.90
2019-03-18T08:45:49.980Z,92.30
2019-03-18T08:48:21.895Z,91.40
2019-03-18T08:50:53.818Z,91.30
2019-03-18T08:53:26.165Z,91.70
2019-03-18T08:55:58.105Z,91.60
2019-03-18T08:58:30.467Z,91.70
2019-03-18T09:01:02.416Z,91.80
2019-03-18T09:03:34.763Z,91.20
2019-03-18T09:06:06.691Z,91.50
2019-03-18T09:08:38.937Z,91.60
2019-03-18T09:11:10.872Z,91.60
2019-03-18T09:13:42.808Z,91.50
2019-03-18T09:16:15.161Z,91.10
2019-03-18T09:18:47.415Z,91.10
2019-03-18T09:21:19.763Z,90.50
2019-03-18T09:23:51.706Z,90.30
2019-03-18T09:26:23.633Z,90.70
2019-03-18T09:28:55.984Z,90.50
2019-03-18T09:31:28.096Z,90.10
2019-03-18T09:34:00.161Z,89.80
2019-03-18T09:36:32.091Z,89.70
2019-03-18T09:39:05.541Z,88.60
2019-03-18T09:41:37.468Z,88.90
2019-03-18T09:44:09.406Z,88.70
2019-03-18T09:46:41.650Z,87.90
2019-03-18T09:49:21.462Z,87.50
2019-03-18T09:51:47.299Z,88.30
2019-03-18T09:54:19.225Z,87.60
2019-03-18T09:56:52.563Z,85.20
2019-03-18T09:59:25.329Z,81.50
2019-03-18T10:01:57.260Z,80.00
2019-03-18T10:04:29.316Z,74.80
2019-03-18T10:07:01.407Z,73.60
2019-03-18T10:09:33.913Z,68.90
2019-03-18T10:12:06.038Z,67.30
2019-03-18T10:14:39.527Z,62.40
2019-03-18T10:17:11.626Z,58.70
2019-03-18T10:19:43.718Z,56.60
2019-03-18T10:22:15.745Z,57.50
2019-03-18T10:24:48.299Z,58.40
2019-03-18T10:27:20.388Z,58.70
2019-03-18T10:29:52.819Z,58.10
2019-03-18T10:32:24.920Z,61.10
2019-03-18T10:34:56.921Z,62.10
2019-03-18T10:37:30.243Z,64.90
2019-03-18T10:40:03.078Z,61.20
2019-03-18T10:42:35.168Z,59.80
2019-03-18T10:45:08.737Z,62.90
2019-03-18T10:47:40.713Z,66.90
2019-03-18T10:50:12.765Z,70.60
2019-03-18T10:52:44.792Z,72.10
2019-03-18T10:55:16.792Z,75.20
2019-03-18T10:57:48.726Z,77.20
2019-03-18T11:00:21.292Z,78.60
2019-03-18T11:02:53.229Z,79.00
2019-03-18T11:05:25.155Z,80.40
2019-03-18T11:07:57.499Z,80.70
2019-03-18T11:10:29.423Z,80.20
2019-03-18T11:13:01.663Z,81.10
2019-03-18T11:15:34.590Z,80.80
2019-03-18T11:18:06.509Z,78.90
2019-03-18T11:20:38.747Z,79.20
2019-03-18T11:23:11.103Z,79.70
2019-03-18T11:25:43.146Z,80.50
2019-03-18T11:28:15.608Z,79.80
2019-03-18T11:30:48.062Z,81.40
2019-03-18T11:33:20.563Z,82.10
2019-03-18T11:35:55.728Z,82.30
2019-03-18T11:38:27.529Z,81.90
2019-03-18T11:40:59.870Z,82.30
2019-03-18T11:43:31.793Z,82.20
2019-03-18T11:46:03.721Z,82.20
2019-03-18T11:48:36.393Z,82.20
2019-03-18T11:51:08.323Z,82.10
2019-03-18T11:53:40.255Z,82.60
2019-03-18T11:56:12.226Z,84.00
2019-03-18T11:58:44.784Z,84.00
2019-03-18T12:01:16.711Z,85.20
2019-03-18T12:03:49.940Z,85.00
2019-03-18T12:06:21.878Z,85.70
2019-03-18T12:08:54.431Z,86.20
2019-03-18T12:11:27.384Z,86.40
2019-03-18T12:13:59.637Z,87.10
2019-03-18T12:16:31.984Z,87.50
2019-03-18T12:19:03.927Z,87.20
2019-03-18T12:21:35.943Z,87.40
2019-03-18T12:24:08.716Z,86.70
2019-03-18T12:26:41.057Z,87.10
2019-03-18T12:29:13.501Z,87.20
2019-03-18T12:31:46.260Z,87.50
2019-03-18T12:34:18.200Z,87.80
2019-03-18T12:36:50.964Z,87.90
2019-03-18T12:39:24.755Z,87.40
2019-03-18T12:41:56.567Z,87.60
2019-03-18T12:44:28.817Z,87.00
2019-03-18T12:47:00.739Z,86.90
2019-03-18T12:49:32.659Z,85.60
2019-03-18T12:52:04.904Z,85.30
2019-03-18T12:54:37.258Z,84.50
2019-03-18T12:57:10.340Z,83.40
2019-03-18T12:59:42.378Z,79.20
2019-03-18T13:02:15.043Z,79.60
2019-03-18T13:04:47.415Z,80.50
2019-03-18T13:07:19.337Z,79.60
2019-03-18T13:09:51.281Z,78.90
2019-03-18T13:12:23.744Z,74.40
2019-03-18T13:14:56.832Z,74.50
2019-03-18T13:17:29.262Z,74.00
2019-03-18T13:20:02.233Z,74.50
2019-03-18T13:22:34.126Z,72.10
2019-03-18T13:25:06.683Z,72.80
2019-03-18T13:27:39.539Z,73.90
2019-03-18T13:30:15.513Z,72.20
2019-03-18T13:32:48.087Z,74.70
2019-03-18T13:35:20.597Z,75.30
2019-03-18T13:37:52.846Z,77.90
2019-03-18T13:40:24.811Z,81.10
2019-03-18T13:42:57.241Z,83.80
2019-03-18T13:45:29.219Z,85.00
2019-03-18T13:48:01.452Z,86.40
2019-03-18T13:50:33.379Z,87.80
2019-03-18T13:53:05.312Z,89.20
2019-03-18T13:55:37.242Z,90.30
2019-03-18T13:58:09.640Z,90.70
2019-03-18T14:00:41.986Z,91.00
2019-03-18T14:03:14.231Z,90.80
2019-03-18T14:05:47.002Z,90.90
2019-03-18T14:08:19.769Z,91.60
2019-03-18T14:10:51.728Z,90.60
2019-03-18T14:13:23.691Z,88.30
2019-03-18T14:15:55.647Z,88.20
2019-03-18T14:18:27.979Z,88.40
2019-03-18T14:20:59.916Z,89.90
2019-03-18T14:23:32.150Z,89.70
2019-03-18T14:26:04.081Z,89.90
2019-03-18T14:28:36.008Z,90.40
2019-03-18T14:31:08.355Z,91.40
2019-03-18T14:33:40.697Z,90.80
2019-03-18T14:36:13.048Z,90.80
2019-03-18T14:38:45.436Z,90.00
2019-03-18T14:41:17.350Z,89.20
2019-03-18T14:43:49.621Z,89.30
2019-03-18T14:46:21.952Z,89.30
2019-03-18T14:48:54.774Z,90.50
2019-03-18T14:51:27.340Z,92.60
2019-03-18T14:54:00.255Z,91.50
2019-03-18T14:56:32.508Z,91.60
2019-03-18T14:59:04.529Z,92.80
2019-03-18T15:01:36.457Z,92.80
2019-03-18T15:04:08.694Z,92.80
2019-03-18T15:06:41.357Z,91.40
2019-03-18T15:09:13.705Z,91.90
2019-03-18T15:11:46.049Z,91.90
2019-03-18T15:14:19.278Z,91.80
2019-03-18T15:16:51.531Z,92.30
2019-03-18T15:19:23.457Z,92.50
2019-03-18T15:21:58.581Z,92.50
2019-03-18T15:24:29.532Z,92.90
2019-03-18T15:27:02.293Z,93.30
2019-03-18T15:29:34.532Z,93.50
2019-03-18T15:32:06.883Z,92.80
2019-03-18T15:34:39.343Z,91.90
2019-03-18T15:37:11.394Z,91.40
2019-03-18T15:39:43.431Z,91.20
2019-03-18T15:42:16.205Z,90.80
2019-03-18T15:44:48.561Z,90.90
2019-03-18T15:47:21.018Z,91.00
2019-03-18T15:49:53.375Z,90.00
2019-03-18T15:52:25.935Z,90.10
2019-03-18T15:54:58.384Z,90.60
2019-03-18T15:57:30.879Z,90.70
2019-03-18T16:00:02.775Z,90.90
2019-03-18T16:02:34.712Z,90.60
2019-03-18T16:05:07.424Z,90.70
2019-03-18T16:07:39.353Z,90.60
2019-03-18T16:10:12.390Z,90.90
2019-03-18T16:12:44.435Z,91.40
2019-03-18T16:15:17.119Z,92.60
2019-03-18T16:17:49.144Z,93.30
2019-03-18T16:20:21.884Z,93.90
2019-03-18T16:22:54.242Z,94.60
2019-03-18T16:25:26.457Z,94.60
2019-03-18T16:27:59.015Z,94.80
2019-03-18T16:30:31.004Z,95.00
2019-03-18T16:33:03.360Z,95.10
2019-03-18T16:35:35.922Z,95.20
2019-03-18T16:38:07.858Z,95.10
2019-03-18T16:40:39.778Z,95.70
2019-03-18T16:43:12.449Z,95.10
2019-03-18T16:45:44.690Z,94.90
2019-03-18T16:48:17.458Z,95.30
2019-03-18T16:50:49.801Z,95.60
2019-03-18T16:53:21.731Z,95.30
2019-03-18T16:55:53.779Z,95.40
2019-03-18T16:58:26.148Z,95.80
2019-03-18T17:00:58.177Z,96.20
2019-03-18T17:03:30.246Z,96.40
2019-03-18T17:06:02.714Z,96.50
2019-03-18T17:08:35.590Z,96.60
2019-03-18T17:11:08.289Z,97.00
2019-03-18T17:13:40.545Z,97.40
2019-03-18T17:16:12.478Z,97.70
2019-03-18T17:18:45.145Z,97.90
2019-03-18T17:21:17.502Z,98.20
2019-03-18T17:23:49.844Z,98.00
2019-03-18T17:26:22.191Z,97.80
2019-03-18T17:28:54.124Z,97.90
2019-03-18T17:31:26.057Z,97.60
2019-03-18T17:33:58.026Z,97.60
2019-03-18T17:36:30.374Z,98.10
2019-03-18T17:39:02.402Z,98.00
2019-03-18T17:41:34.709Z,98.30
2019-03-18T17:44:06.635Z,97.90
2019-03-18T17:46:38.633Z,97.60
2019-03-18T17:49:11.304Z,97.30
2019-03-18T17:51:43.231Z,96.60
2019-03-18T17:54:15.587Z,96.60
2019-03-18T17:56:47.826Z,96.80
2019-03-18T17:59:20.503Z,96.80
2019-03-18T18:01:52.432Z,97.00
2019-03-18T18:04:24.380Z,97.10
2019-03-18T18:06:56.936Z,97.00
2019-03-18T18:09:30.122Z,96.80
2019-03-18T18:12:02.216Z,96.90
2019-03-18T18:14:36.719Z,96.80
2019-03-18T18:17:08.648Z,96.90
2019-03-18T18:19:41.721Z,97.10
2019-03-18T18:22:13.647Z,97.20
2019-03-18T18:24:45.580Z,97.30
2019-03-18T18:27:19.100Z,97.30
2019-03-18T18:29:51.524Z,97.10
2019-03-18T18:32:25.140Z,97.40
2019-03-18T18:34:57.079Z,97.80
2019-03-18T18:37:29.328Z,97.90
2019-03-18T18:40:04.759Z,97.90
2019-03-18T18:42:36.067Z,98.20
2019-03-18T18:45:10.531Z,98.20
2019-03-18T18:47:42.778Z,98.60
2019-03-18T18:50:15.636Z,98.90
2019-03-18T18:52:48.922Z,98.90
2019-03-18T18:55:21.479Z,98.80
2019-03-18T18:57:53.830Z,98.80
2019-03-18T19:00:25.876Z,99.00
2019-03-18T19:02:58.653Z,98.70
2019-03-18T19:05:30.902Z,99.00
2019-03-18T19:08:03.290Z,99.20
2019-03-18T19:10:36.112Z,99.40
2019-03-18T19:13:08.793Z,99.70
2019-03-18T19:15:43.987Z,99.90
2019-03-18T19:18:15.929Z,99.90
2019-03-18T19:20:48.604Z,99.90
2019-03-18T19:23:20.852Z,99.90
2019-03-18T19:25:53.210Z,99.90
2019-03-18T19:28:26.184Z,99.90
2019-03-18T19:30:58.125Z,99.90
2019-03-18T19:33:30.476Z,99.90
2019-03-18T19:36:02.519Z,99.90
2019-03-18T19:38:34.848Z,99.90
2019-03-18T19:41:07.214Z,99.90
2019-03-18T19:43:39.558Z,99.90
2019-03-18T19:46:12.220Z,99.90
2019-03-18T19:48:44.571Z,99.90
2019-03-18T19:51:16.509Z,99.90
2019-03-18T19:53:49.632Z,99.90
2019-03-18T19:56:21.673Z,99.80
2019-03-18T19:58:53.614Z,99.90
2019-03-18T20:01:26.190Z,99.90
2019-03-18T20:03:58.539Z,99.90
2019-03-18T20:06:30.699Z,99.70
2019-03-18T20:09:04.153Z,99.70
2019-03-18T20:11:36.499Z,99.90
2019-03-18T20:14:09.161Z,99.90
2019-03-18T20:16:41.837Z,99.90
2019-03-18T20:19:14.496Z,99.80
2019-03-18T20:21:46.847Z,99.70
2019-03-18T20:24:19.144Z,99.00
2019-03-18T20:26:51.073Z,99.10
2019-03-18T20:29:23.002Z,99.60
2019-03-18T20:31:55.352Z,99.90
2019-03-18T20:34:28.679Z,99.90
2019-03-18T20:37:00.616Z,99.90
2019-03-18T20:39:32.544Z,99.90
2019-03-18T20:42:05.665Z,99.90
2019-03-18T20:44:38.443Z,99.90
2019-03-18T20:47:10.802Z,99.90
2019-03-18T20:49:42.727Z,99.90
2019-03-18T20:52:17.068Z,99.90
2019-03-18T20:54:50.033Z,99.90
2019-03-18T20:57:21.960Z,99.90
2019-03-18T20:59:54.216Z,99.90
2019-03-18T21:02:26.779Z,99.90
2019-03-18T21:04:59.541Z,99.90
2019-03-18T21:07:31.505Z,99.90
2019-03-18T21:10:05.255Z,99.50
2019-03-18T21:12:37.234Z,99.40
2019-03-18T21:15:10.035Z,99.10
2019-03-18T21:17:42.703Z,98.60
2019-03-18T21:20:16.645Z,99.20
2019-03-18T21:22:50.478Z,99.20
2019-03-18T21:25:22.416Z,99.50
2019-03-18T21:27:54.448Z,99.90
2019-03-18T21:30:26.633Z,99.90
2019-03-18T21:32:58.682Z,99.90
2019-03-18T21:35:32.095Z,99.90
2019-03-18T21:38:04.127Z,99.90
2019-03-18T21:40:36.491Z,99.90
2019-03-18T21:43:08.845Z,99.90
2019-03-18T21:45:41.089Z,99.90
2019-03-18T21:48:13.024Z,99.90
2019-03-18T21:50:45.288Z,99.90
2019-03-18T21:53:17.229Z,99.90
2019-03-18T21:55:50.569Z,99.90
2019-03-18T21:58:22.500Z,99.90
2019-03-18T22:00:55.268Z,99.90
2019-03-18T22:03:28.467Z,99.90
2019-03-18T22:06:01.357Z,99.90
2019-03-18T22:08:34.031Z,99.90
2019-03-18T22:11:05.995Z,99.90
2019-03-18T22:13:37.933Z,99.90
2019-03-18T22:16:09.859Z,99.90
2019-03-18T22:18:42.211Z,99.90
2019-03-18T22:21:14.128Z,99.90
2019-03-18T22:23:46.061Z,99.90
2019-03-18T22:26:18.295Z,99.90
2019-03-18T22:28:50.648Z,99.90
2019-03-18T22:31:23.407Z,99.90
2019-03-18T22:33:55.331Z,99.90
2019-03-18T22:36:27.253Z,99.90
2019-03-18T22:38:59.608Z,99.90
2019-03-18T22:41:32.940Z,99.90
2019-03-18T22:44:05.201Z,99.90
2019-03-18T22:46:37.237Z,99.90
2019-03-18T22:49:09.161Z,99.90
2019-03-18T22:51:41.618Z,99.90
2019-03-18T22:54:13.541Z,99.90
2019-03-18T22:56:45.777Z,99.90
2019-03-18T22:59:18.122Z,99.90
2019-03-18T23:01:51.470Z,99.90
2019-03-18T23:04:24.387Z,99.90
2019-03-18T23:06:56.573Z,98.00
2019-03-18T23:09:28.825Z,99.40
2019-03-18T23:12:01.207Z,99.90
2019-03-18T23:14:33.195Z,99.30
2019-03-18T23:17:05.568Z,99.90
2019-03-18T23:19:37.912Z,99.90
2019-03-18T23:22:10.572Z,99.90
2019-03-18T23:24:43.498Z,99.90
2019-03-18T23:27:15.952Z,99.90
2019-03-18T23:29:48.183Z,99.90
2019-03-18T23:32:20.838Z,99.90
2019-03-18T23:34:54.145Z,99.90
2019-03-18T23:37:26.069Z,99.90
2019-03-18T23:39:58.985Z,99.90
2019-03-18T23:42:30.916Z,99.90
2019-03-18T23:45:03.485Z,99.90
2019-03-18T23:47:35.398Z,99.90
2019-03-18T23:50:07.729Z,99.90
2019-03-18T23:52:39.982Z,99.90
2019-03-18T23:55:19.498Z,99.90
2019-03-18T23:57:46.461Z,99.90
